Time;durP1;ratioP1;P1;durP2;ratioP2;P2;SDS_P1;SDS_P2;PMS_P1;PMS_P2;Temp;Humidity;BMP_temperature;BMP_pressure;BME280_temperature;BME280_humidity;BME280_pressure;Samples;Min_cycle;Max_cycle;Signal;HPM_P1;HPM_P2
2021/09/07 00:00:38;;;;;;;35.58;15.52;;;;;;;;;;4974159;28;20158;-72
2021/09/07 00:03:04;;;;;;;22.73;13.20;;;;;;;;;;4990109;28;20031;-73
2021/09/07 00:05:29;;;;;;;25.73;13.35;;;;;;;;;;4991600;28;20125;-73
2021/09/07 00:07:55;;;;;;;21.92;12.10;;;;;;;;;;4990249;28;20081;-74
2021/09/07 00:10:20;;;;;;;23.90;14.00;;;;;;;;;;4989953;28;20030;-72
2021/09/07 00:12:46;;;;;;;21.88;12.68;;;;;;;;;;4991486;28;20026;-72
2021/09/07 00:15:13;;;;;;;22.77;12.82;;;;;;;;;;4973457;28;20080;-74
2021/09/07 00:17:39;;;;;;;19.92;12.18;;;;;;;;;;4989836;28;20552;-73
2021/09/07 00:20:07;;;;;;;24.05;11.95;;;;;;;;;;4990933;28;20038;-73
2021/09/07 00:22:33;;;;;;;22.15;14.02;;;;;;;;;;4991154;28;20474;-73
2021/09/07 00:24:58;;;;;;;22.48;12.98;;;;;;;;;;4991045;28;20662;-73
2021/09/07 00:27:24;;;;;;;23.00;12.75;;;;;;;;;;4990996;28;20100;-74
2021/09/07 00:29:49;;;;;;;27.67;12.35;;;;;;;;;;4989548;28;20054;-74
2021/09/07 00:32:15;;;;;;;22.73;12.90;;;;;;;;;;4991079;28;20383;-74
2021/09/07 00:34:40;;;;;;;21.88;13.27;;;;;;;;;;4973562;28;20033;-73
2021/09/07 00:37:06;;;;;;;25.52;14.18;;;;;;;;;;4990732;28;20046;-74
2021/09/07 00:39:31;;;;;;;25.40;13.75;;;;;;;;;;4973441;28;20037;-74
2021/09/07 00:41:57;;;;;;;26.20;13.05;;;;;;;;;;4991546;28;20382;-74
2021/09/07 00:44:23;;;;;;;22.30;12.55;;;;;;;;;;4990641;28;20465;-74
2021/09/07 00:46:54;;;;;;;20.40;12.15;;;;;;;;;;4991047;28;20069;-74
2021/09/07 00:49:21;;;;;;;19.90;12.30;;;;;;;;;;4990534;28;20061;-75
2021/09/07 00:51:48;;;;;;;24.08;12.43;;;;;;;;;;4991020;28;20379;-74
2021/09/07 00:54:16;;;;;;;22.77;13.10;;;;;;;;;;4972856;28;20037;-72
2021/09/07 00:56:42;;;;;;;26.33;12.25;;;;;;;;;;4990483;28;20030;-74
2021/09/07 00:59:09;;;;;;;25.48;14.07;;;;;;;;;;4990358;28;20396;-73
2021/09/07 01:01:35;;;;;;;23.63;12.35;;;;;;;;;;4972900;28;20611;-74
2021/09/07 01:04:00;;;;;;;24.48;12.80;;;;;;;;;;4972879;28;20030;-74
2021/09/07 01:06:27;;;;;;;23.80;13.10;;;;;;;;;;4972394;28;20088;-74
2021/09/07 01:08:55;;;;;;;22.95;13.07;;;;;;;;;;4990266;28;20034;-74
2021/09/07 01:11:20;;;;;;;23.63;11.75;;;;;;;;;;4990192;28;20041;-74
2021/09/07 01:13:46;;;;;;;20.95;12.35;;;;;;;;;;4972716;28;20030;-74
2021/09/07 01:16:12;;;;;;;22.98;12.82;;;;;;;;;;4990162;28;20125;-73
2021/09/07 01:18:38;;;;;;;23.10;13.80;;;;;;;;;;4988854;28;20207;-74
2021/09/07 01:21:09;;;;;;;26.25;13.60;;;;;;;;;;4990306;28;20113;-74
2021/09/07 01:23:37;;;;;;;26.85;12.95;;;;;;;;;;4990308;28;20436;-73
2021/09/07 01:26:02;;;;;;;23.45;12.68;;;;;;;;;;4989969;28;20077;-72
2021/09/07 01:28:29;;;;;;;22.80;12.30;;;;;;;;;;4990054;28;20050;-74
2021/09/07 01:30:55;;;;;;;22.13;12.63;;;;;;;;;;4990179;28;20490;-74
2021/09/07 01:33:21;;;;;;;22.73;13.15;;;;;;;;;;4972429;28;20120;-74
2021/09/07 01:35:47;;;;;;;18.98;11.93;;;;;;;;;;4972760;28;20078;-73
2021/09/07 01:38:12;;;;;;;22.90;13.05;;;;;;;;;;4988364;28;20058;-74
2021/09/07 01:40:38;;;;;;;21.98;12.50;;;;;;;;;;4989913;28;20037;-73
2021/09/07 01:43:03;;;;;;;20.27;12.52;;;;;;;;;;4989648;28;20030;-75
2021/09/07 01:45:29;;;;;;;25.63;13.43;;;;;;;;;;4990163;28;20255;-74
2021/09/07 01:47:54;;;;;;;23.55;12.27;;;;;;;;;;4989860;28;20038;-73
2021/09/07 01:50:20;;;;;;;20.67;12.35;;;;;;;;;;4972462;28;20061;-73
2021/09/07 01:52:46;;;;;;;23.95;12.63;;;;;;;;;;4989682;28;20030;-73
2021/09/07 01:55:11;;;;;;;26.40;12.70;;;;;;;;;;4972261;28;20029;-73
2021/09/07 01:57:37;;;;;;;23.25;14.63;;;;;;;;;;4972240;28;20517;-73
2021/09/07 02:00:05;;;;;;;21.98;13.00;;;;;;;;;;4972672;28;20027;-73
2021/09/07 02:02:30;;;;;;;22.90;12.80;;;;;;;;;;4989825;28;20022;-73
2021/09/07 02:04:56;;;;;;;21.42;12.80;;;;;;;;;;4989719;28;20037;-74
2021/09/07 02:07:21;;;;;;;22.20;12.93;;;;;;;;;;4972354;28;20386;-72
2021/09/07 02:09:47;;;;;;;23.73;12.82;;;;;;;;;;4972299;28;20077;-74
2021/09/07 02:12:12;;;;;;;24.98;12.95;;;;;;;;;;4988433;28;20022;-74
2021/09/07 02:14:38;;;;;;;22.30;13.27;;;;;;;;;;4989747;28;20034;-74
2021/09/07 02:17:04;;;;;;;27.15;14.43;;;;;;;;;;4989551;28;20479;-74
2021/09/07 02:19:29;;;;;;;21.90;12.43;;;;;;;;;;4991703;28;20069;-74
2021/09/07 02:21:55;;;;;;;24.30;13.35;;;;;;;;;;4993780;28;20085;-74
2021/09/07 02:24:20;;;;;;;28.40;12.77;;;;;;;;;;4993333;28;20034;-74
2021/09/07 02:26:46;;;;;;;27.83;13.13;;;;;;;;;;4993527;28;20038;-74
2021/09/07 02:29:11;;;;;;;22.75;12.90;;;;;;;;;;4972164;28;20566;-74
2021/09/07 02:31:37;;;;;;;21.33;12.65;;;;;;;;;;4972453;28;20030;-74
2021/09/07 02:34:02;;;;;;;24.15;12.88;;;;;;;;;;4956325;28;20601;-74
2021/09/07 02:36:28;;;;;;;25.33;12.98;;;;;;;;;;4955990;28;20031;-74
2021/09/07 02:38:54;;;;;;;22.95;13.48;;;;;;;;;;4973810;28;20484;-73
2021/09/07 02:41:20;;;;;;;23.13;12.80;;;;;;;;;;4956216;28;20038;-74
2021/09/07 02:43:46;;;;;;;19.58;12.48;;;;;;;;;;4956217;28;20441;-74
2021/09/07 02:46:12;;;;;;;24.80;13.35;;;;;;;;;;4973396;28;20062;-74
2021/09/07 02:48:37;;;;;;;25.63;12.43;;;;;;;;;;4956195;28;20045;-74
2021/09/07 02:51:03;;;;;;;24.60;12.75;;;;;;;;;;4956274;28;20027;-74
2021/09/07 02:53:29;;;;;;;25.52;13.77;;;;;;;;;;4973235;28;20328;-74
2021/09/07 02:55:54;;;;;;;27.83;14.43;;;;;;;;;;4973620;28;20034;-72
2021/09/07 02:58:20;;;;;;;21.02;13.15;;;;;;;;;;4973054;28;20383;-74
2021/09/07 03:00:45;;;;;;;24.30;13.50;;;;;;;;;;4955770;28;20026;-74
2021/09/07 03:03:11;;;;;;;28.20;13.00;;;;;;;;;;4973135;28;20037;-74
2021/09/07 03:05:37;;;;;;;23.08;13.48;;;;;;;;;;4973334;28;20058;-74
2021/09/07 03:08:02;;;;;;;26.30;13.75;;;;;;;;;;4973358;28;20096;-74
2021/09/07 03:10:28;;;;;;;24.02;13.63;;;;;;;;;;4972844;28;20058;-75
2021/09/07 03:12:56;;;;;;;22.67;13.55;;;;;;;;;;4973131;28;20055;-75
2021/09/07 03:15:23;;;;;;;24.58;12.68;;;;;;;;;;4972901;28;20047;-74
2021/09/07 03:17:48;;;;;;;25.73;13.70;;;;;;;;;;4973020;28;20415;-74
2021/09/07 03:20:14;;;;;;;28.85;13.80;;;;;;;;;;4972793;28;20034;-73
2021/09/07 03:22:39;;;;;;;21.90;12.70;;;;;;;;;;4971584;28;20022;-73
2021/09/07 03:25:05;;;;;;;26.38;14.07;;;;;;;;;;4972908;28;20033;-74
2021/09/07 03:27:30;;;;;;;21.05;13.05;;;;;;;;;;4972626;28;20089;-74
2021/09/07 03:29:56;;;;;;;20.80;12.25;;;;;;;;;;4974146;28;20054;-73
2021/09/07 03:32:23;;;;;;;26.35;13.20;;;;;;;;;;4991120;28;20050;-73
2021/09/07 03:34:48;;;;;;;25.35;13.30;;;;;;;;;;4992625;28;20477;-73
2021/09/07 03:37:14;;;;;;;27.10;15.00;;;;;;;;;;4974233;28;20093;-74
2021/09/07 03:39:39;;;;;;;27.27;14.05;;;;;;;;;;4991916;28;20026;-75
2021/09/07 03:42:05;;;;;;;23.58;13.93;;;;;;;;;;4991991;28;20105;-74
2021/09/07 03:44:30;;;;;;;23.13;14.05;;;;;;;;;;4990272;28;20532;-72
2021/09/07 03:46:56;;;;;;;28.25;16.17;;;;;;;;;;4991641;28;20042;-73
2021/09/07 03:49:21;;;;;;;19.05;12.50;;;;;;;;;;4990008;28;20475;-73
2021/09/07 03:51:47;;;;;;;26.58;14.13;;;;;;;;;;4993120;28;20471;-74
2021/09/07 03:54:12;;;;;;;20.17;12.93;;;;;;;;;;4993677;28;20088;-72
2021/09/07 03:56:38;;;;;;;21.02;12.75;;;;;;;;;;4994208;28;20097;-74
2021/09/07 03:59:04;;;;;;;24.33;13.73;;;;;;;;;;4992637;28;20031;-73
2021/09/07 04:01:29;;;;;;;24.10;13.82;;;;;;;;;;4990703;28;20034;-75
2021/09/07 04:03:55;;;;;;;21.98;11.77;;;;;;;;;;4991633;28;20030;-74
2021/09/07 04:06:21;;;;;;;27.27;13.45;;;;;;;;;;4991246;28;20041;-73
2021/09/07 04:08:46;;;;;;;24.52;14.13;;;;;;;;;;4991507;28;20034;-74
2021/09/07 04:11:12;;;;;;;27.00;13.48;;;;;;;;;;4991118;28;20100;-72
2021/09/07 04:13:37;;;;;;;23.52;13.43;;;;;;;;;;4991345;28;20531;-74
2021/09/07 04:16:03;;;;;;;24.38;12.73;;;;;;;;;;4991449;28;20081;-75
2021/09/07 04:18:29;;;;;;;23.73;13.35;;;;;;;;;;4990888;28;20154;-73
2021/09/07 04:20:54;;;;;;;21.63;13.07;;;;;;;;;;4990987;28;20035;-75
2021/09/07 04:23:20;;;;;;;26.17;13.77;;;;;;;;;;4990824;28;20041;-74
2021/09/07 04:25:45;;;;;;;24.55;14.70;;;;;;;;;;4991337;28;20030;-74
2021/09/07 04:28:11;;;;;;;26.05;13.90;;;;;;;;;;4990877;28;20548;-74
2021/09/07 04:30:36;;;;;;;23.58;13.23;;;;;;;;;;4989781;28;20049;-74
2021/09/07 04:33:02;;;;;;;19.80;13.18;;;;;;;;;;4991128;28;20482;-74
2021/09/07 04:35:27;;;;;;;22.55;13.25;;;;;;;;;;4973058;28;20505;-73
2021/09/07 04:37:53;;;;;;;23.75;14.48;;;;;;;;;;4973317;28;20026;-73
2021/09/07 04:40:18;;;;;;;27.42;15.07;;;;;;;;;;4973518;28;20058;-73
2021/09/07 04:42:44;;;;;;;25.73;14.23;;;;;;;;;;4972416;28;20033;-74
2021/09/07 04:45:10;;;;;;;21.77;12.80;;;;;;;;;;4990904;28;20030;-73
2021/09/07 04:47:35;;;;;;;25.50;12.95;;;;;;;;;;4990394;28;20026;-73
2021/09/07 04:50:01;;;;;;;26.13;13.35;;;;;;;;;;4989276;28;20408;-74
2021/09/07 04:52:26;;;;;;;25.83;15.02;;;;;;;;;;4973103;28;20022;-74
2021/09/07 04:54:52;;;;;;;24.75;13.18;;;;;;;;;;4990763;28;20141;-73
2021/09/07 04:57:17;;;;;;;26.08;12.98;;;;;;;;;;4973059;28;20058;-74
2021/09/07 04:59:42;;;;;;;27.38;13.38;;;;;;;;;;4989171;28;20490;-74
2021/09/07 05:02:08;;;;;;;33.80;17.17;;;;;;;;;;4990795;28;20109;-74
2021/09/07 05:04:33;;;;;;;28.27;14.13;;;;;;;;;;4990432;28;20126;-74
2021/09/07 05:06:59;;;;;;;26.15;14.30;;;;;;;;;;4973046;28;20453;-72
2021/09/07 05:09:24;;;;;;;29.23;13.55;;;;;;;;;;4989801;28;20049;-73
2021/09/07 05:11:51;;;;;;;23.88;12.88;;;;;;;;;;4972968;28;20045;-74
2021/09/07 05:14:18;;;;;;;24.20;14.52;;;;;;;;;;4972674;28;20030;-73
2021/09/07 05:16:43;;;;;;;29.30;13.90;;;;;;;;;;4990454;28;20084;-74
2021/09/07 05:19:09;;;;;;;24.77;13.73;;;;;;;;;;4988793;28;20487;-74
2021/09/07 05:21:35;;;;;;;30.40;13.73;;;;;;;;;;4989900;28;20074;-74
2021/09/07 05:24:01;;;;;;;24.83;13.43;;;;;;;;;;4972900;28;20041;-74
2021/09/07 05:26:26;;;;;;;26.55;14.38;;;;;;;;;;4989986;28;20314;-73
2021/09/07 05:28:52;;;;;;;24.00;13.05;;;;;;;;;;4969100;28;20097;-74
2021/09/07 05:31:18;;;;;;;21.77;12.70;;;;;;;;;;4951744;28;20039;-74
2021/09/07 05:33:44;;;;;;;33.47;14.82;;;;;;;;;;4935110;28;20442;-74
2021/09/07 05:36:11;;;;;;;25.02;14.50;;;;;;;;;;4956416;28;20023;-75
2021/09/07 05:38:36;;;;;;;24.25;13.30;;;;;;;;;;4950778;29;20038;-74
2021/09/07 05:41:02;;;;;;;30.75;15.32;;;;;;;;;;4958982;28;20046;-74
2021/09/07 05:43:27;;;;;;;23.45;12.95;;;;;;;;;;4965171;28;20502;-74
2021/09/07 05:45:53;;;;;;;20.33;12.60;;;;;;;;;;4970261;28;20034;-75
2021/09/07 05:48:18;;;;;;;26.65;13.25;;;;;;;;;;4954433;28;20042;-75
2021/09/07 05:50:43;;;;;;;31.75;22.80;;;;;;;;;;4938775;28;20091;-76
2021/09/07 05:53:09;;;;;;;25.77;15.18;;;;;;;;;;4961716;28;20039;-74
2021/09/07 05:55:35;;;;;;;25.73;13.45;;;;;;;;;;4938374;29;20031;-75
2021/09/07 05:58:01;;;;;;;28.48;12.93;;;;;;;;;;4955260;29;20035;-74
2021/09/07 06:00:27;;;;;;;20.27;13.38;;;;;;;;;;4954542;29;20031;-73
2021/09/07 06:02:56;;;;;;;25.17;13.18;;;;;;;;;;4953105;28;20034;-75
2021/09/07 06:05:22;;;;;;;23.20;13.57;;;;;;;;;;4954537;28;20038;-74
2021/09/07 06:07:47;;;;;;;24.73;14.10;;;;;;;;;;4972099;28;20031;-74
2021/09/07 06:10:13;;;;;;;27.95;14.25;;;;;;;;;;4953759;29;20384;-73
2021/09/07 06:12:40;;;;;;;23.75;13.88;;;;;;;;;;4961582;28;20454;-74
2021/09/07 06:15:07;;;;;;;26.73;13.52;;;;;;;;;;4954184;29;20027;-75
2021/09/07 06:17:32;;;;;;;26.92;14.85;;;;;;;;;;4935515;29;20033;-73
2021/09/07 06:19:57;;;;;;;26.13;13.65;;;;;;;;;;4954258;28;20847;-73
2021/09/07 06:22:23;;;;;;;25.00;13.23;;;;;;;;;;4954729;28;20051;-73
2021/09/07 06:24:49;;;;;;;21.92;12.73;;;;;;;;;;4943732;29;20030;-74
2021/09/07 06:27:15;;;;;;;24.67;13.90;;;;;;;;;;4957266;28;20436;-73
2021/09/07 06:29:40;;;;;;;26.90;16.75;;;;;;;;;;4945020;28;20077;-74
2021/09/07 06:32:06;;;;;;;24.75;14.23;;;;;;;;;;4957474;28;20018;-74
2021/09/07 06:34:32;;;;;;;31.45;13.93;;;;;;;;;;4972631;28;20061;-75
2021/09/07 06:36:57;;;;;;;22.67;13.40;;;;;;;;;;4966446;28;20031;-74
2021/09/07 06:39:23;;;;;;;23.63;13.98;;;;;;;;;;4974496;28;20022;-72
2021/09/07 06:41:49;;;;;;;23.73;13.15;;;;;;;;;;4974852;28;20102;-74
2021/09/07 06:44:15;;;;;;;21.33;13.35;;;;;;;;;;4982512;28;20117;-75
2021/09/07 06:46:40;;;;;;;25.15;13.43;;;;;;;;;;4974134;28;20034;-75
2021/09/07 06:49:06;;;;;;;25.05;12.65;;;;;;;;;;4972579;28;20037;-74
2021/09/07 06:51:32;;;;;;;21.75;13.07;;;;;;;;;;4953894;28;20042;-75
2021/09/07 06:53:57;;;;;;;26.48;14.00;;;;;;;;;;4963848;28;20039;-74
2021/09/07 06:56:23;;;;;;;21.77;12.10;;;;;;;;;;4963105;28;20030;-73
2021/09/07 06:58:48;;;;;;;24.70;13.20;;;;;;;;;;4965255;28;20435;-72
2021/09/07 07:01:14;;;;;;;21.48;13.23;;;;;;;;;;4978130;28;20187;-73
2021/09/07 07:03:39;;;;;;;25.63;13.02;;;;;;;;;;4970869;28;20158;-72
2021/09/07 07:06:06;;;;;;;25.48;13.93;;;;;;;;;;4975520;28;20511;-75
2021/09/07 07:08:32;;;;;;;23.30;13.45;;;;;;;;;;4970509;28;20072;-75
2021/09/07 07:10:57;;;;;;;30.98;15.07;;;;;;;;;;4970813;28;20065;-73
2021/09/07 07:13:23;;;;;;;27.40;13.95;;;;;;;;;;4971533;28;20022;-72
2021/09/07 07:15:48;;;;;;;26.00;14.55;;;;;;;;;;4946964;28;20030;-72
2021/09/07 07:18:14;;;;;;;28.33;15.05;;;;;;;;;;4974872;28;20444;-73
2021/09/07 07:20:39;;;;;;;25.88;13.68;;;;;;;;;;4950060;28;20070;-75
2021/09/07 07:23:05;;;;;;;29.00;14.93;;;;;;;;;;4971232;28;20031;-74
2021/09/07 07:25:31;;;;;;;23.65;14.43;;;;;;;;;;4974296;28;20061;-72
2021/09/07 07:27:57;;;;;;;28.95;14.45;;;;;;;;;;4969477;28;20553;-72
2021/09/07 07:30:25;;;;;;;30.10;14.73;;;;;;;;;;4969250;28;20607;-73
2021/09/07 07:32:51;;;;;;;26.40;14.90;;;;;;;;;;4948736;28;20839;-74
2021/09/07 07:35:17;;;;;;;30.27;16.17;;;;;;;;;;4970984;28;20058;-73
2021/09/07 07:37:42;;;;;;;30.83;15.80;;;;;;;;;;4953118;28;20023;-73
2021/09/07 07:40:08;;;;;;;28.33;15.05;;;;;;;;;;4951428;28;20038;-72
2021/09/07 07:42:34;;;;;;;47.35;22.38;;;;;;;;;;4952614;28;20033;-73
2021/09/07 07:44:59;;;;;;;28.75;15.70;;;;;;;;;;4971961;28;20035;-72
2021/09/07 07:47:25;;;;;;;33.83;16.90;;;;;;;;;;4969773;28;20097;-75
2021/09/07 07:49:50;;;;;;;36.03;18.02;;;;;;;;;;4954877;28;20023;-75
2021/09/07 07:52:16;;;;;;;36.88;17.90;;;;;;;;;;4972976;28;20041;-73
2021/09/07 07:54:41;;;;;;;31.10;18.00;;;;;;;;;;4965906;28;20026;-73
2021/09/07 07:57:09;;;;;;;35.47;18.65;;;;;;;;;;4973020;28;20040;-73
2021/09/07 07:59:35;;;;;;;33.10;18.70;;;;;;;;;;4970217;28;20530;-74
2021/09/07 08:02:02;;;;;;;38.63;18.73;;;;;;;;;;4970137;28;20041;-74
2021/09/07 08:04:28;;;;;;;33.78;18.65;;;;;;;;;;4971136;28;20073;-74
2021/09/07 08:06:53;;;;;;;35.08;19.38;;;;;;;;;;4951843;28;20058;-74
2021/09/07 08:09:19;;;;;;;36.28;18.83;;;;;;;;;;4970689;28;20026;-74
2021/09/07 08:11:44;;;;;;;32.53;18.17;;;;;;;;;;4972444;28;20126;-72
2021/09/07 08:14:10;;;;;;;34.05;19.20;;;;;;;;;;4966812;28;20097;-74
2021/09/07 08:16:36;;;;;;;36.08;20.48;;;;;;;;;;4952376;28;20042;-74
2021/09/07 08:19:01;;;;;;;35.97;18.52;;;;;;;;;;4965859;28;20129;-75
2021/09/07 08:21:28;;;;;;;42.53;22.65;;;;;;;;;;4963769;28;20050;-74
2021/09/07 08:23:54;;;;;;;37.25;18.90;;;;;;;;;;4966940;28;20023;-73
2021/09/07 08:26:20;;;;;;;44.83;20.80;;;;;;;;;;4972162;28;20034;-75
2021/09/07 08:28:46;;;;;;;46.80;21.15;;;;;;;;;;4976742;28;20376;-74
2021/09/07 08:31:11;;;;;;;32.40;18.50;;;;;;;;;;4980665;28;20775;-73
2021/09/07 08:33:37;;;;;;;38.08;18.38;;;;;;;;;;4977885;28;20026;-74
2021/09/07 08:36:03;;;;;;;38.15;20.00;;;;;;;;;;4960677;28;20508;-74
2021/09/07 08:38:30;;;;;;;41.03;19.48;;;;;;;;;;4972482;28;20468;-74
2021/09/07 08:40:57;;;;;;;38.40;20.58;;;;;;;;;;4955124;28;20129;-75
2021/09/07 08:43:24;;;;;;;42.72;20.70;;;;;;;;;;4967968;28;20057;-74
2021/09/07 08:45:56;;;;;;;41.63;19.48;;;;;;;;;;4950989;28;20034;-74
2021/09/07 08:48:25;;;;;;;34.92;20.55;;;;;;;;;;4945617;28;20031;-74
2021/09/07 08:50:56;;;;;;;45.75;21.20;;;;;;;;;;4972036;28;20035;-74
2021/09/07 08:53:22;;;;;;;31.92;19.05;;;;;;;;;;4945440;28;20023;-74
2021/09/07 08:55:48;;;;;;;48.30;22.15;;;;;;;;;;4969193;28;20030;-73
2021/09/07 08:58:14;;;;;;;38.22;18.60;;;;;;;;;;4971168;28;20035;-74
2021/09/07 09:00:39;;;;;;;40.65;19.85;;;;;;;;;;4950945;28;20632;-74
2021/09/07 09:03:11;;;;;;;33.35;18.25;;;;;;;;;;4968770;28;20027;-74
2021/09/07 09:05:40;;;;;;;38.13;19.83;;;;;;;;;;4971683;28;21098;-74
2021/09/07 09:08:12;;;;;;;44.60;19.00;;;;;;;;;;4975866;28;20034;-74
2021/09/07 09:10:39;;;;;;;34.97;20.08;;;;;;;;;;4954017;28;20034;-73
2021/09/07 09:13:14;;;;;;;34.95;19.55;;;;;;;;;;4969748;28;20029;-74
2021/09/07 09:15:41;;;;;;;39.30;19.52;;;;;;;;;;4951186;28;20559;-74
2021/09/07 09:18:11;;;;;;;35.55;19.92;;;;;;;;;;4962776;28;20529;-75
2021/09/07 09:20:40;;;;;;;36.75;19.38;;;;;;;;;;4966677;28;20046;-74
2021/09/07 09:23:09;;;;;;;48.08;21.58;;;;;;;;;;4968975;28;20506;-74
2021/09/07 09:25:44;;;;;;;38.80;19.75;;;;;;;;;;4960206;28;20046;-73
2021/09/07 09:28:18;;;;;;;32.85;18.55;;;;;;;;;;4965533;28;20034;-74
2021/09/07 09:30:49;;;;;;;34.60;18.88;;;;;;;;;;4965482;28;20475;-74
2021/09/07 09:33:23;;;;;;;40.58;20.30;;;;;;;;;;4969629;28;20569;-75
2021/09/07 09:35:55;;;;;;;36.25;18.80;;;;;;;;;;4943415;28;20045;-73
2021/09/07 09:38:23;;;;;;;38.03;19.73;;;;;;;;;;4970306;28;20422;-73
2021/09/07 09:41:09;;;;;;;40.65;20.83;;;;;;;;;;4964888;28;20026;-74
2021/09/07 09:43:46;;;;;;;35.45;18.88;;;;;;;;;;4964452;28;20860;-74
2021/09/07 09:46:24;;;;;;;34.97;19.52;;;;;;;;;;4946478;28;20057;-73
2021/09/07 09:48:51;;;;;;;66.70;37.55;;;;;;;;;;4962462;28;20110;-74
2021/09/07 09:51:19;;;;;;;38.20;20.05;;;;;;;;;;4959753;28;20035;-75
2021/09/07 09:53:46;;;;;;;40.75;20.08;;;;;;;;;;4949957;28;20085;-73
2021/09/07 09:56:12;;;;;;;44.38;21.38;;;;;;;;;;4954914;28;20034;-74
2021/09/07 09:58:39;;;;;;;35.72;20.15;;;;;;;;;;4971414;28;20442;-73
2021/09/07 10:01:05;;;;;;;38.15;19.70;;;;;;;;;;4969361;28;20411;-72
2021/09/07 10:03:32;;;;;;;33.47;20.02;;;;;;;;;;4973166;28;20053;-73
2021/09/07 10:05:58;;;;;;;41.50;21.60;;;;;;;;;;4951460;28;20035;-73
2021/09/07 10:08:23;;;;;;;38.47;20.67;;;;;;;;;;4966404;28;20030;-73
2021/09/07 10:10:59;;;;;;;36.45;20.73;;;;;;;;;;4951646;28;20498;-73
2021/09/07 10:13:27;;;;;;;35.97;19.75;;;;;;;;;;4965289;28;20041;-74
2021/09/07 10:16:04;;;;;;;34.95;18.77;;;;;;;;;;4929764;28;20034;-75
2021/09/07 10:21:16;;;;;;;42.42;20.08;;;;;;;;;;4969667;28;20111;-73
2021/09/07 10:26:44;;;;;;;36.75;19.80;;;;;;;;;;4970521;28;20046;-73
2021/09/07 10:29:39;;;;;;;39.85;20.02;;;;;;;;;;4950891;28;20743;-72
2021/09/07 10:32:26;;;;;;;39.03;21.20;;;;;;;;;;4968949;28;20048;-74
2021/09/07 10:35:12;;;;;;;44.08;21.42;;;;;;;;;;4965479;28;21265;-74
2021/09/07 10:38:07;;;;;;;56.03;26.25;;;;;;;;;;4955413;28;20038;-74
2021/09/07 10:40:45;;;;;;;45.63;21.00;;;;;;;;;;4968823;28;20134;-73
2021/09/07 10:43:10;;;;;;;39.38;20.48;;;;;;;;;;4966125;28;20037;-73
2021/09/07 10:45:38;;;;;;;37.17;20.40;;;;;;;;;;4973222;28;20121;-75
2021/09/07 10:48:35;;;;;;;41.80;22.52;;;;;;;;;;4955769;28;20046;-73
2021/09/07 10:51:03;;;;;;;40.25;21.33;;;;;;;;;;4935614;28;20543;-75
2021/09/07 10:53:30;;;;;;;37.03;20.63;;;;;;;;;;4952555;28;20049;-74
2021/09/07 10:56:27;;;;;;;42.80;21.75;;;;;;;;;;4969957;28;20058;-75
2021/09/07 10:58:53;;;;;;;56.15;25.02;;;;;;;;;;4976016;28;20038;-73
2021/09/07 11:01:26;;;;;;;41.55;21.60;;;;;;;;;;4972723;28;20049;-74
2021/09/07 11:04:31;;;;;;;37.47;19.38;;;;;;;;;;4974179;28;20035;-74
2021/09/07 11:06:57;;;;;;;41.88;21.80;;;;;;;;;;4973330;28;20108;-73
2021/09/07 11:09:49;;;;;;;39.17;21.25;;;;;;;;;;4963890;28;20027;-74
2021/09/07 11:12:34;;;;;;;32.90;20.52;;;;;;;;;;4974615;28;20034;-74
2021/09/07 11:15:04;;;;;;;39.65;19.35;;;;;;;;;;4968721;28;20034;-73
2021/09/07 11:17:30;;;;;;;38.17;21.55;;;;;;;;;;4975852;28;20046;-74
2021/09/07 11:20:02;;;;;;;36.53;19.55;;;;;;;;;;4971970;28;20095;-76
2021/09/07 11:22:31;;;;;;;38.17;19.88;;;;;;;;;;4957644;28;20026;-74
2021/09/07 11:25:10;;;;;;;34.75;19.42;;;;;;;;;;4953043;28;20138;-73
2021/09/07 11:27:50;;;;;;;35.47;18.92;;;;;;;;;;4971121;28;20050;-72
2021/09/07 11:30:30;;;;;;;34.55;17.33;;;;;;;;;;4965248;28;20047;-74
2021/09/07 11:33:18;;;;;;;31.08;17.52;;;;;;;;;;4952543;28;20026;-74
2021/09/07 11:35:48;;;;;;;38.45;16.42;;;;;;;;;;4938564;28;20116;-73
2021/09/07 11:38:19;;;;;;;26.15;16.25;;;;;;;;;;4972638;28;20026;-75
2021/09/07 11:40:50;;;;;;;35.55;17.35;;;;;;;;;;4972227;28;20081;-74
2021/09/07 11:43:34;;;;;;;31.67;17.88;;;;;;;;;;4972366;28;20154;-74
2021/09/07 11:46:34;;;;;;;37.40;18.95;;;;;;;;;;4968026;28;20035;-74
2021/09/07 11:49:05;;;;;;;33.88;18.88;;;;;;;;;;4950730;28;20050;-74
2021/09/07 11:51:32;;;;;;;;;;;;;;;;;;4971590;28;20043;-73
2021/09/07 11:54:04;;;;;;;33.33;17.55;;;;;;;;;;4972701;28;20409;-75
2021/09/07 11:56:32;;;;;;;32.63;17.40;;;;;;;;;;4956700;28;20533;-74
2021/09/07 11:59:19;;;;;;;29.88;17.25;;;;;;;;;;4951827;28;20031;-74
2021/09/07 12:01:53;;;;;;;36.50;18.35;;;;;;;;;;4959000;28;20406;-73
2021/09/07 12:04:20;;;;;;;31.83;18.63;;;;;;;;;;4974889;28;20482;-75
2021/09/07 12:06:51;;;;;;;29.75;17.60;;;;;;;;;;4973508;28;20147;-74
2021/09/07 12:09:30;;;;;;;34.80;19.48;;;;;;;;;;4984174;28;20087;-74
2021/09/07 12:12:10;;;;;;;30.73;17.17;;;;;;;;;;4975887;28;20066;-74
2021/09/07 12:14:44;;;;;;;32.45;18.02;;;;;;;;;;4971302;28;20042;-74
2021/09/07 12:17:15;;;;;;;34.80;18.30;;;;;;;;;;4951312;28;20085;-73
2021/09/07 12:19:50;;;;;;;31.75;17.38;;;;;;;;;;4972266;28;20042;-74
2021/09/07 12:22:21;;;;;;;34.17;19.70;;;;;;;;;;4968677;28;20125;-73
2021/09/07 12:25:02;;;;;;;;;;;;;;;;;;4969043;28;20027;-73
2021/09/07 12:27:30;;;;;;;34.55;17.83;;;;;;;;;;4969172;28;19993;-74
2021/09/07 12:30:10;;;;;;;33.88;17.08;;;;;;;;;;4952021;28;20066;-74
2021/09/07 12:32:51;;;;;;;26.52;16.08;;;;;;;;;;4949645;28;20062;-74
2021/09/07 12:35:43;;;;;;;31.42;18.42;;;;;;;;;;4962841;28;20137;-75
2021/09/07 12:38:18;;;;;;;34.35;18.75;;;;;;;;;;4956427;28;20704;-74
2021/09/07 12:40:51;;;;;;;35.60;18.50;;;;;;;;;;4958409;28;20030;-74
2021/09/07 12:43:25;;;;;;;35.28;17.52;;;;;;;;;;4951351;28;20081;-73
2021/09/07 12:45:53;;;;;;;32.47;18.88;;;;;;;;;;4974079;28;20034;-74
2021/09/07 12:48:19;;;;;;;33.13;18.88;;;;;;;;;;4968367;28;20061;-74
2021/09/07 12:50:46;;;;;;;32.97;18.83;;;;;;;;;;4967264;28;20030;-72
2021/09/07 12:53:12;;;;;;;34.15;20.85;;;;;;;;;;4974027;28;20514;-74
2021/09/07 12:55:39;;;;;;;35.47;19.00;;;;;;;;;;4970866;28;20065;-73
2021/09/07 12:58:08;;;;;;;33.20;19.65;;;;;;;;;;4972640;28;20093;-73
2021/09/07 13:00:44;;;;;;;42.38;20.42;;;;;;;;;;4951738;28;20343;-75
2021/09/07 13:03:12;;;;;;;38.35;19.55;;;;;;;;;;4967326;28;20042;-72
2021/09/07 13:05:42;;;;;;;36.70;20.08;;;;;;;;;;4950524;28;20038;-73
2021/09/07 13:08:09;;;;;;;;;;;;;;;;;;4970584;28;20402;-72
2021/09/07 13:10:35;;;;;;;43.13;19.80;;;;;;;;;;4971698;28;19918;-73
2021/09/07 13:13:00;;;;;;;35.58;18.55;;;;;;;;;;4950028;28;20153;-72
2021/09/07 13:15:27;;;;;;;35.53;18.90;;;;;;;;;;4971260;28;20049;-74
2021/09/07 13:17:53;;;;;;;26.75;17.25;;;;;;;;;;4968130;28;20038;-73
2021/09/07 13:20:19;;;;;;;31.40;18.17;;;;;;;;;;4967733;28;20497;-73
2021/09/07 13:22:44;;;;;;;32.40;18.75;;;;;;;;;;4952669;28;20046;-73
2021/09/07 13:25:12;;;;;;;35.92;18.95;;;;;;;;;;4970935;28;20069;-72
2021/09/07 13:27:39;;;;;;;33.63;19.08;;;;;;;;;;4959051;28;20117;-73
2021/09/07 13:30:06;;;;;;;35.03;18.05;;;;;;;;;;4956777;28;20044;-72
2021/09/07 13:32:32;;;;;;;37.38;19.52;;;;;;;;;;4937436;28;20495;-72
2021/09/07 13:34:57;;;;;;;39.08;19.95;;;;;;;;;;4952541;28;20042;-74
2021/09/07 13:37:23;;;;;;;39.95;19.85;;;;;;;;;;4933999;28;20503;-74
2021/09/07 13:39:49;;;;;;;34.58;18.75;;;;;;;;;;4950018;28;20471;-74
2021/09/07 13:42:14;;;;;;;37.30;20.67;;;;;;;;;;4932316;29;20035;-72
2021/09/07 13:44:39;;;;;;;38.35;21.15;;;;;;;;;;4932492;29;20764;-73
2021/09/07 13:47:05;;;;;;;42.78;19.55;;;;;;;;;;4931035;29;20031;-75
2021/09/07 13:49:31;;;;;;;40.38;19.58;;;;;;;;;;4949358;29;20078;-75
2021/09/07 13:51:56;;;;;;;34.65;19.25;;;;;;;;;;4948031;29;20389;-75
2021/09/07 13:54:22;;;;;;;36.42;18.92;;;;;;;;;;4948222;28;20043;-75
2021/09/07 13:56:48;;;;;;;36.03;19.83;;;;;;;;;;4948381;28;20090;-73
2021/09/07 13:59:14;;;;;;;32.25;19.02;;;;;;;;;;4932974;29;20091;-75
2021/09/07 14:01:39;;;;;;;66.00;33.10;;;;;;;;;;4933939;29;20844;-73
2021/09/07 14:04:05;;;;;;;41.63;20.98;;;;;;;;;;4948995;29;20158;-73
2021/09/07 14:06:30;;;;;;;36.92;20.95;;;;;;;;;;4936254;29;20039;-74
2021/09/07 14:08:57;;;;;;;43.63;18.58;;;;;;;;;;4951008;29;20038;-74
2021/09/07 14:11:22;;;;;;;28.00;18.45;;;;;;;;;;4949439;28;20035;-73
2021/09/07 14:13:48;;;;;;;33.88;19.17;;;;;;;;;;4956043;28;20101;-74
2021/09/07 14:16:14;;;;;;;33.60;17.23;;;;;;;;;;4951528;28;20058;-73
2021/09/07 14:18:39;;;;;;;36.13;18.48;;;;;;;;;;4933726;29;20110;-75
2021/09/07 14:21:05;;;;;;;36.72;19.05;;;;;;;;;;4919638;28;20191;-73
2021/09/07 14:23:31;;;;;;;41.13;18.45;;;;;;;;;;4953309;28;20037;-74
2021/09/07 14:25:59;;;;;;;31.35;18.73;;;;;;;;;;4953623;28;20122;-73
2021/09/07 14:28:25;;;;;;;34.72;17.88;;;;;;;;;;4951031;28;20055;-72